Lane, OK (74555)

1:21 PM CDT on July 31, 2015 (GMT -0500)
Atoka Municipal | | Change Station
CLOSE
Current Station
Airport
Location: Atoka,
Elevation: 591 ft
Nearby Weather Stations

Elev 591 ft 34.40 °N, 96.15 °W | Updated 6 minutes ago

Scattered Clouds
Scattered Clouds
88 °F
Feels Like 88 °F
N
0
Wind Variable Wind from North

Today
High -- | Low -- °F
--% Chance of Precip.
Yesterday
High -- | Low -- °F
Precip. -- in
6:34 AM 8:27 PM
Full, 100% visible
Pressure 30.13 in
Visibility -9999.0 miles
Clouds Scattered Clouds 12000 ft
Heat Index 88 °F
Dew Point 63 °F
Humidity 43%
Rainfall 0.00 in
Snow Depth Not available.
UV 9 out of 12
Pollen 4.60 out of 12
Air Quality Not available.
Flu Activity Not available.
METAR KAQR 311815Z AUTO 00000KT SCT120 31/17 A3013 RMK AO2

More Conditions Fewer Conditions

Pressure 30.13 in
Visibility -9999.0 miles
Clouds Scattered Clouds 12000 ft
Heat Index 88 °F
Dew Point 63 °F
Humidity 43%
Rainfall 0.00 in
Snow Depth Not available.
UV 9 out of 12
Pollen 4.60 out of 12
Air Quality Not available.
Flu Activity Not available.
METAR KAQR 311815Z AUTO 00000KT SCT120 31/17 A3013 RMK AO2

More Conditions Fewer Conditions

10-Day Weather Forecast

×

Almanac

Astronomy

Jul. 31, 2015 Rise Set
Actual Time
Civil Twilight
Nautical Twilight
Astronomical Twilight
Moon
Length of Visible Light
Length of Day
Tomorrow will be .
, % of the Moon is Illuminated

Today's Extremes

State Highs State Lows

Community

WunderPhotos

Upload Photos

1,842,707 photos uploaded!

WunderBlogs® & News

Nearby

Air Quality

  Air Quality AQ Index Pollutant
Not available.

Snow Depth

Station Depth Elevation

Earthquake Activity

City Distance Mag. Time & Date
Minimum magnitude displayed is 2.5.

Coastal Water Temperatures

Place Temperature

Stations

Nearby Weather Stations

Station Location Temp. Windchill Dew Point Humidity Wind Precip. Elev Updated Type